createdAt,value
2017-09-17T00:00:49.379Z,14.50
2017-09-17T00:03:18.567Z,14.40
2017-09-17T00:05:48.375Z,14.60
2017-09-17T00:08:17.604Z,14.70
2017-09-17T00:10:47.776Z,14.90
2017-09-17T00:13:20.800Z,14.90
2017-09-17T00:15:51.440Z,15.00
2017-09-17T00:18:23.581Z,14.90
2017-09-17T00:20:52.417Z,14.80
2017-09-17T00:23:22.391Z,14.70
2017-09-17T00:25:51.399Z,14.70
2017-09-17T00:28:21.226Z,14.90
2017-09-17T00:30:49.870Z,14.90
2017-09-17T00:33:18.384Z,14.60
2017-09-17T00:35:47.324Z,14.90
2017-09-17T00:38:17.086Z,14.70
2017-09-17T00:40:46.004Z,15.00
2017-09-17T00:43:14.832Z,14.70
2017-09-17T00:45:49.436Z,14.60
2017-09-17T00:48:19.139Z,14.70
2017-09-17T00:50:49.514Z,14.70
2017-09-17T00:53:19.688Z,14.50
2017-09-17T00:55:50.414Z,14.70
2017-09-17T00:58:19.212Z,14.60
2017-09-17T01:00:48.006Z,14.70
2017-09-17T01:03:16.777Z,14.60
2017-09-17T01:05:47.456Z,14.50
2017-09-17T01:08:17.784Z,14.70
2017-09-17T01:10:47.773Z,14.30
2017-09-17T01:13:19.232Z,14.60
2017-09-17T01:15:48.288Z,14.50
2017-09-17T01:18:17.982Z,14.50
2017-09-17T01:20:49.443Z,14.50
2017-09-17T01:23:20.878Z,14.60
2017-09-17T01:25:51.537Z,14.30
2017-09-17T01:28:21.673Z,14.70
2017-09-17T01:30:50.740Z,14.30
2017-09-17T01:33:20.393Z,14.50
2017-09-17T01:35:50.063Z,14.50
2017-09-17T01:38:19.122Z,14.60
2017-09-17T01:40:48.812Z,14.40
2017-09-17T01:43:18.337Z,14.30
2017-09-17T01:45:47.372Z,14.20
2017-09-17T01:48:20.893Z,14.50
2017-09-17T01:50:51.908Z,14.30
2017-09-17T01:53:20.844Z,14.40
2017-09-17T01:55:50.345Z,14.40
2017-09-17T01:58:22.144Z,14.40
2017-09-17T02:00:50.761Z,14.50
2017-09-17T02:03:20.890Z,14.40
2017-09-17T02:05:50.896Z,14.30
2017-09-17T02:08:21.408Z,14.40
2017-09-17T02:10:51.475Z,14.60
2017-09-17T02:13:21.810Z,14.60
2017-09-17T02:15:52.530Z,14.30
2017-09-17T02:18:22.307Z,14.20
2017-09-17T02:20:51.781Z,14.20
2017-09-17T02:23:21.005Z,14.10
2017-09-17T02:25:50.950Z,14.30
2017-09-17T02:28:19.881Z,13.90
2017-09-17T02:30:50.145Z,14.20
2017-09-17T02:33:19.936Z,14.10
2017-09-17T02:35:51.804Z,14.20
2017-09-17T02:38:20.865Z,14.20
2017-09-17T02:40:58.246Z,14.10
2017-09-17T02:43:27.325Z,14.10
2017-09-17T02:45:57.091Z,14.30
2017-09-17T02:48:27.074Z,13.90
2017-09-17T02:50:58.559Z,14.10
2017-09-17T02:53:27.993Z,14.00
2017-09-17T02:55:57.528Z,14.10
2017-09-17T02:58:29.354Z,14.20
2017-09-17T03:00:59.580Z,14.00
2017-09-17T03:03:29.821Z,13.60
2017-09-17T03:05:59.869Z,13.90
2017-09-17T03:08:29.341Z,13.80
2017-09-17T03:10:58.139Z,13.70
2017-09-17T03:13:28.885Z,13.60
2017-09-17T03:15:58.507Z,13.80
2017-09-17T03:18:28.831Z,13.70
2017-09-17T03:20:58.151Z,13.60
2017-09-17T03:23:27.899Z,13.50
2017-09-17T03:25:56.653Z,13.70
2017-09-17T03:28:26.522Z,13.60
2017-09-17T03:30:58.910Z,13.70
2017-09-17T03:33:30.654Z,13.80
2017-09-17T03:36:02.377Z,13.80
2017-09-17T03:38:32.136Z,13.50
2017-09-17T03:41:00.722Z,13.80
2017-09-17T03:43:31.002Z,13.60
2017-09-17T03:45:59.991Z,13.70
2017-09-17T03:48:30.117Z,13.80
2017-09-17T03:50:58.998Z,13.70
2017-09-17T03:53:27.474Z,13.90
2017-09-17T03:55:58.163Z,13.70
2017-09-17T03:58:28.527Z,13.70
2017-09-17T04:00:58.116Z,13.80
2017-09-17T04:03:27.541Z,13.80
2017-09-17T04:06:02.262Z,13.70
2017-09-17T04:08:34.731Z,13.70
2017-09-17T04:11:04.880Z,13.80
2017-09-17T04:13:38.391Z,13.80
2017-09-17T04:16:06.866Z,14.00
2017-09-17T04:18:35.428Z,13.80
2017-09-17T04:21:05.287Z,13.70
2017-09-17T04:23:35.006Z,13.70
2017-09-17T04:26:03.597Z,13.80
2017-09-17T04:28:36.084Z,13.60
2017-09-17T04:31:05.268Z,13.70
2017-09-17T04:33:33.995Z,13.80
2017-09-17T04:36:02.955Z,13.90
2017-09-17T04:38:34.244Z,13.80
2017-09-17T04:41:03.252Z,13.60
2017-09-17T04:43:34.072Z,13.80
2017-09-17T04:46:07.465Z,13.50
2017-09-17T04:48:37.067Z,13.50
2017-09-17T04:51:05.821Z,13.50
2017-09-17T04:53:34.332Z,13.60
2017-09-17T04:56:03.538Z,13.80
2017-09-17T04:58:32.863Z,13.40
2017-09-17T05:01:03.342Z,13.40
2017-09-17T05:03:32.734Z,13.90
2017-09-17T05:06:01.954Z,13.80
2017-09-17T05:08:30.393Z,13.60
2017-09-17T05:10:59.654Z,13.70
2017-09-17T05:13:32.290Z,13.50
2017-09-17T05:16:02.770Z,13.80
2017-09-17T05:18:32.341Z,13.50
2017-09-17T05:21:01.011Z,13.60
2017-09-17T05:23:29.495Z,13.60
2017-09-17T05:25:58.616Z,13.80
2017-09-17T05:28:26.871Z,13.60
2017-09-17T05:30:55.108Z,13.60
2017-09-17T05:33:23.395Z,13.80
2017-09-17T05:35:52.235Z,13.70
2017-09-17T05:38:21.247Z,13.60
2017-09-17T05:40:49.519Z,13.70
2017-09-17T05:43:17.815Z,13.60
2017-09-17T05:45:46.068Z,13.80
2017-09-17T05:48:15.099Z,13.80
2017-09-17T05:50:43.443Z,13.70
2017-09-17T05:53:12.460Z,14.10
2017-09-17T05:55:40.704Z,13.80
2017-09-17T05:58:09.932Z,13.80
2017-09-17T06:00:38.232Z,13.70
2017-09-17T06:03:07.311Z,13.90
2017-09-17T06:05:36.511Z,13.90
2017-09-17T06:08:04.753Z,14.00
2017-09-17T06:10:34.736Z,13.80
2017-09-17T06:13:03.768Z,13.80
2017-09-17T06:15:32.775Z,13.70
2017-09-17T06:18:01.088Z,13.80
2017-09-17T06:20:29.375Z,14.10
2017-09-17T06:22:57.735Z,13.70
2017-09-17T06:25:26.035Z,13.90
2017-09-17T06:27:54.417Z,13.90
2017-09-17T06:30:22.640Z,13.80
2017-09-17T06:32:50.882Z,13.80
2017-09-17T06:35:19.945Z,13.90
2017-09-17T06:37:48.267Z,13.90
2017-09-17T06:40:17.339Z,14.10
2017-09-17T06:42:45.615Z,14.00
2017-09-17T06:45:14.633Z,14.50
2017-09-17T06:47:42.937Z,14.40
2017-09-17T06:50:11.181Z,14.10
2017-09-17T06:52:41.039Z,14.20
2017-09-17T06:55:10.312Z,14.50
2017-09-17T06:57:39.412Z,14.50
2017-09-17T07:00:07.672Z,14.60
2017-09-17T07:02:35.996Z,14.60
2017-09-17T07:05:05.247Z,14.80
2017-09-17T07:07:33.566Z,14.70
2017-09-17T07:10:01.822Z,14.60
2017-09-17T07:12:30.839Z,14.90
2017-09-17T07:14:59.943Z,14.80
2017-09-17T07:17:28.214Z,14.60
2017-09-17T07:19:58.874Z,15.10
2017-09-17T07:22:28.153Z,14.80
2017-09-17T07:24:56.411Z,14.70
2017-09-17T07:27:25.301Z,14.70
2017-09-17T07:29:53.675Z,14.90
2017-09-17T07:32:23.134Z,15.00
2017-09-17T07:34:53.448Z,14.80
2017-09-17T07:37:22.311Z,14.80
2017-09-17T07:39:50.707Z,15.10
2017-09-17T07:42:18.955Z,15.00
2017-09-17T07:44:47.470Z,15.00
2017-09-17T07:47:16.083Z,15.10
2017-09-17T07:49:45.829Z,15.40
2017-09-17T07:52:14.793Z,15.10
2017-09-17T07:54:44.680Z,15.20
2017-09-17T07:57:19.006Z,15.30
2017-09-17T07:59:53.680Z,15.30
2017-09-17T08:02:25.948Z,15.10
2017-09-17T08:04:55.257Z,15.40
2017-09-17T08:07:25.231Z,15.20
2017-09-17T08:09:55.032Z,15.10
2017-09-17T08:12:25.947Z,15.20
2017-09-17T08:14:54.264Z,15.40
2017-09-17T08:17:25.002Z,15.30
2017-09-17T08:19:53.278Z,15.40
2017-09-17T08:22:22.386Z,15.50
2017-09-17T08:24:50.784Z,15.40
2017-09-17T08:27:19.759Z,15.60
2017-09-17T08:29:48.083Z,15.40
2017-09-17T08:32:18.541Z,15.60
2017-09-17T08:34:46.838Z,15.40
2017-09-17T08:37:15.898Z,15.50
2017-09-17T08:39:44.251Z,15.70
2017-09-17T08:42:12.846Z,15.80
2017-09-17T08:44:42.141Z,15.70
2017-09-17T08:47:11.270Z,15.90
2017-09-17T08:49:39.552Z,16.00
2017-09-17T08:52:08.803Z,16.10
2017-09-17T08:54:37.081Z,16.10
2017-09-17T08:57:05.386Z,16.00
2017-09-17T08:59:35.158Z,16.20
2017-09-17T09:02:04.365Z,15.90
2017-09-17T09:04:32.801Z,16.10
2017-09-17T09:07:02.057Z,16.00
2017-09-17T09:09:31.165Z,16.00
2017-09-17T09:11:59.438Z,16.20
2017-09-17T09:14:27.772Z,16.00
2017-09-17T09:16:57.265Z,16.10
2017-09-17T09:19:25.540Z,16.20
2017-09-17T09:21:54.697Z,16.40
2017-09-17T09:27:25.198Z,16.20
2017-09-17T09:29:54.244Z,16.30
2017-09-17T09:32:23.360Z,16.10
2017-09-17T09:34:52.389Z,16.20
2017-09-17T09:37:21.665Z,16.30
2017-09-17T09:39:51.159Z,16.60
2017-09-17T09:42:20.570Z,16.70
2017-09-17T09:44:49.094Z,16.80
2017-09-17T09:47:17.448Z,17.00
2017-09-17T09:49:45.745Z,17.00
2017-09-17T09:52:14.041Z,17.10
2017-09-17T09:54:43.325Z,17.00
2017-09-17T09:57:11.670Z,17.30
2017-09-17T09:59:40.726Z,17.20
2017-09-17T10:02:09.068Z,17.00
2017-09-17T10:04:37.555Z,17.00
2017-09-17T10:07:05.890Z,17.30
2017-09-17T10:09:34.235Z,17.30
2017-09-17T10:12:02.480Z,17.10
2017-09-17T10:14:31.805Z,17.00
2017-09-17T10:17:00.091Z,17.20
2017-09-17T10:19:29.584Z,17.00
2017-09-17T10:21:58.694Z,16.80
2017-09-17T10:24:27.336Z,16.90
2017-09-17T10:26:55.624Z,17.10
2017-09-17T10:29:23.956Z,17.10
2017-09-17T10:31:52.421Z,17.00
2017-09-17T10:34:20.751Z,17.10
2017-09-17T10:36:49.098Z,17.10
2017-09-17T10:39:18.255Z,17.20
2017-09-17T10:41:46.538Z,17.10
2017-09-17T10:44:14.869Z,17.00
2017-09-17T10:46:44.859Z,17.20
2017-09-17T10:49:13.263Z,17.00
2017-09-17T10:51:41.511Z,17.30
2017-09-17T10:54:10.652Z,17.00
2017-09-17T10:56:39.774Z,16.80
2017-09-17T10:59:09.870Z,17.10
2017-09-17T11:01:39.210Z,17.20
2017-09-17T11:04:07.539Z,17.30
2017-09-17T11:06:35.907Z,17.30
2017-09-17T11:09:04.991Z,17.40
2017-09-17T11:11:35.326Z,17.50
2017-09-17T11:14:04.398Z,17.60
2017-09-17T11:16:33.597Z,17.30
2017-09-17T11:19:02.663Z,17.40
2017-09-17T11:21:31.289Z,17.50
2017-09-17T11:27:00.958Z,17.40
2017-09-17T11:29:30.757Z,17.50
2017-09-17T11:32:00.283Z,17.60
2017-09-17T11:34:30.096Z,17.40
2017-09-17T11:37:00.849Z,17.50
2017-09-17T11:39:31.088Z,17.70
2017-09-17T11:42:00.638Z,17.60
2017-09-17T11:44:29.882Z,17.80
2017-09-17T11:46:59.474Z,18.00
2017-09-17T11:49:30.952Z,18.00
2017-09-17T11:52:00.144Z,17.80
2017-09-17T11:54:29.079Z,18.00
2017-09-17T11:56:57.755Z,17.70
2017-09-17T11:59:27.445Z,17.60
2017-09-17T12:01:57.775Z,17.90
2017-09-17T12:04:26.353Z,17.50
2017-09-17T12:06:55.500Z,17.60
2017-09-17T12:09:25.112Z,17.70
2017-09-17T12:11:53.852Z,17.90
2017-09-17T12:14:23.440Z,17.70
2017-09-17T12:16:54.505Z,17.80
2017-09-17T12:19:23.747Z,17.90
2017-09-17T12:21:52.005Z,17.70
2017-09-17T12:24:20.655Z,18.20
2017-09-17T12:26:49.729Z,18.10
2017-09-17T12:29:20.119Z,18.10
2017-09-17T12:31:48.407Z,18.20
2017-09-17T12:34:17.137Z,17.90
2017-09-17T12:36:47.127Z,18.20
2017-09-17T12:39:18.942Z,18.30
2017-09-17T12:41:48.272Z,18.20
2017-09-17T12:44:17.330Z,18.20
2017-09-17T12:46:46.628Z,18.00
2017-09-17T12:49:15.469Z,17.70
2017-09-17T12:51:44.969Z,18.10
2017-09-17T12:54:13.564Z,17.90
2017-09-17T12:56:42.637Z,17.90
2017-09-17T12:59:11.196Z,18.10
2017-09-17T13:01:41.649Z,18.20
2017-09-17T13:04:10.796Z,18.10
2017-09-17T13:06:39.326Z,18.00
2017-09-17T13:09:07.712Z,18.10
2017-09-17T13:11:36.073Z,18.00
2017-09-17T13:16:58.276Z,17.90
2017-09-17T13:19:26.605Z,18.20
2017-09-17T13:21:55.745Z,18.20
2017-09-17T13:24:24.138Z,18.30
2017-09-17T13:26:54.365Z,18.20
2017-09-17T13:29:22.697Z,18.40
2017-09-17T13:34:51.760Z,18.20
2017-09-17T13:37:20.167Z,18.20
2017-09-17T13:39:49.217Z,18.30
2017-09-17T13:42:32.219Z,18.30
2017-09-17T13:45:01.284Z,18.30
2017-09-17T13:50:31.596Z,18.10
2017-09-17T13:53:00.293Z,18.10
2017-09-17T13:55:28.600Z,18.50
2017-09-17T13:57:58.590Z,18.30
2017-09-17T14:00:29.753Z,18.30
2017-09-17T14:02:59.207Z,18.50
2017-09-17T14:05:30.987Z,18.40
2017-09-17T14:08:05.711Z,18.50
2017-09-17T14:10:35.054Z,18.30
2017-09-17T14:13:04.149Z,18.40
2017-09-17T14:15:33.236Z,18.60
2017-09-17T14:18:01.526Z,18.20
2017-09-17T14:20:30.767Z,18.30
2017-09-17T14:23:09.224Z,18.20
2017-09-17T14:25:38.824Z,18.40
2017-09-17T14:28:07.094Z,18.50
2017-09-17T14:30:36.354Z,18.70
2017-09-17T14:33:04.633Z,18.30
2017-09-17T14:35:32.979Z,18.60
2017-09-17T14:38:02.190Z,18.70
2017-09-17T14:40:31.270Z,18.50
2017-09-17T14:43:01.585Z,18.50
2017-09-17T14:45:31.007Z,18.40
2017-09-17T14:48:00.294Z,18.70
2017-09-17T14:50:28.562Z,18.70
2017-09-17T14:52:58.816Z,18.80
2017-09-17T14:55:27.495Z,18.70
2017-09-17T14:57:58.314Z,18.80
2017-09-17T15:00:27.618Z,18.50
2017-09-17T15:02:56.711Z,18.60
2017-09-17T15:05:25.977Z,18.40
2017-09-17T15:07:54.307Z,18.50
2017-09-17T15:10:22.640Z,18.60
2017-09-17T15:12:51.633Z,18.60
2017-09-17T15:15:20.161Z,18.60
2017-09-17T15:17:49.440Z,18.50
2017-09-17T15:20:19.212Z,18.60
2017-09-17T15:22:47.579Z,18.70
2017-09-17T15:25:16.210Z,18.40
2017-09-17T15:27:45.343Z,18.50
2017-09-17T15:30:13.647Z,18.30
2017-09-17T15:32:41.965Z,18.30
2017-09-17T15:35:11.126Z,18.50
2017-09-17T15:37:41.388Z,18.20
2017-09-17T15:40:10.474Z,18.00
2017-09-17T15:42:39.528Z,18.30
2017-09-17T15:45:08.076Z,18.10
2017-09-17T15:47:37.149Z,17.90
2017-09-17T15:50:06.254Z,17.80
2017-09-17T15:52:35.463Z,17.90
2017-09-17T15:55:05.397Z,18.10
2017-09-17T15:57:34.713Z,17.90
2017-09-17T16:00:03.144Z,18.10
2017-09-17T16:02:31.480Z,18.20
2017-09-17T16:05:00.731Z,18.40
2017-09-17T16:07:29.577Z,18.40
2017-09-17T16:09:58.668Z,18.30
2017-09-17T16:12:28.101Z,18.20
2017-09-17T16:14:59.863Z,18.10
2017-09-17T16:17:33.133Z,18.00
2017-09-17T16:20:02.807Z,18.10
2017-09-17T16:22:31.423Z,18.00
2017-09-17T16:25:00.041Z,17.60
2017-09-17T16:27:29.538Z,17.50
2017-09-17T16:29:58.754Z,17.80
2017-09-17T16:32:28.784Z,17.80
2017-09-17T16:34:57.972Z,17.60
2017-09-17T16:37:27.908Z,17.80
2017-09-17T16:39:58.610Z,17.60
2017-09-17T16:42:28.880Z,17.70
2017-09-17T16:45:00.975Z,17.70
2017-09-17T16:47:33.011Z,17.80
2017-09-17T16:50:03.020Z,18.00
2017-09-17T16:52:33.731Z,18.00
2017-09-17T16:55:04.037Z,17.70
2017-09-17T16:57:36.023Z,17.90
2017-09-17T17:00:06.136Z,17.70
2017-09-17T17:02:34.508Z,18.10
2017-09-17T17:05:03.935Z,17.80
2017-09-17T17:07:34.691Z,17.70
2017-09-17T17:10:04.681Z,17.80
2017-09-17T17:12:33.028Z,17.60
2017-09-17T17:15:02.174Z,17.60
2017-09-17T17:17:32.105Z,17.60
2017-09-17T17:20:02.469Z,17.80
2017-09-17T17:22:35.359Z,17.60
2017-09-17T17:25:03.830Z,17.50
2017-09-17T17:27:32.201Z,17.40
2017-09-17T17:30:00.530Z,17.60
2017-09-17T17:32:29.175Z,17.50
2017-09-17T17:35:03.798Z,17.50
2017-09-17T17:37:33.216Z,17.50
2017-09-17T17:40:02.621Z,17.40
2017-09-17T17:42:31.377Z,17.70
2017-09-17T17:45:02.388Z,17.50
2017-09-17T17:47:35.710Z,17.30
2017-09-17T17:50:05.228Z,17.00
2017-09-17T17:52:34.128Z,17.40
2017-09-17T17:55:04.186Z,17.30
2017-09-17T17:57:32.884Z,17.00
2017-09-17T18:00:02.259Z,17.30
2017-09-17T18:02:32.057Z,17.00
2017-09-17T18:05:02.091Z,17.20
2017-09-17T18:07:30.666Z,17.00
2017-09-17T18:10:00.046Z,17.00
2017-09-17T18:12:28.605Z,16.90
2017-09-17T18:15:00.176Z,16.70
2017-09-17T18:17:30.975Z,16.60
2017-09-17T18:19:59.392Z,17.00
2017-09-17T18:22:28.503Z,17.30
2017-09-17T18:24:58.574Z,17.10
2017-09-17T18:27:27.542Z,17.20
2017-09-17T18:29:57.316Z,17.10
2017-09-17T18:32:28.587Z,16.90
2017-09-17T18:34:58.631Z,17.20
2017-09-17T18:37:27.614Z,16.80
2017-09-17T18:39:58.209Z,16.80
2017-09-17T18:42:28.369Z,16.60
2017-09-17T18:44:58.387Z,16.50
2017-09-17T18:47:29.163Z,16.70
2017-09-17T18:49:58.056Z,16.70
2017-09-17T18:52:28.904Z,16.40
2017-09-17T18:54:57.724Z,16.50
2017-09-17T18:57:27.967Z,16.40
2017-09-17T18:59:58.243Z,16.60
2017-09-17T19:02:31.210Z,16.60
2017-09-17T19:05:00.985Z,16.50
2017-09-17T19:07:32.397Z,16.30
2017-09-17T19:13:04.310Z,16.30
2017-09-17T19:15:34.796Z,16.20
2017-09-17T19:18:04.232Z,16.00
2017-09-17T19:20:34.298Z,15.90
2017-09-17T19:23:04.697Z,15.90
2017-09-17T19:25:34.456Z,15.90
2017-09-17T19:28:03.257Z,15.80
2017-09-17T19:30:37.189Z,15.70
2017-09-17T19:33:06.672Z,15.80
2017-09-17T19:35:37.183Z,16.10
2017-09-17T19:38:06.063Z,15.90
2017-09-17T19:40:35.441Z,15.70
2017-09-17T19:43:05.152Z,15.90
2017-09-17T19:45:35.460Z,16.20
2017-09-17T19:48:04.455Z,16.00
2017-09-17T19:50:34.343Z,15.80
2017-09-17T19:53:04.950Z,15.70
2017-09-17T19:55:34.711Z,15.80
2017-09-17T19:58:05.965Z,15.80
2017-09-17T20:00:36.097Z,15.80
2017-09-17T20:03:07.747Z,15.80
2017-09-17T20:05:38.135Z,16.00
2017-09-17T20:08:09.804Z,15.70
2017-09-17T20:10:38.609Z,15.70
2017-09-17T20:13:06.969Z,15.90
2017-09-17T20:15:36.159Z,15.80
2017-09-17T20:18:05.164Z,15.60
2017-09-17T20:20:33.612Z,15.90
2017-09-17T20:23:02.422Z,15.70
2017-09-17T20:25:31.507Z,15.70
2017-09-17T20:28:00.214Z,16.10
2017-09-17T20:30:29.624Z,15.70
2017-09-17T20:32:58.855Z,15.70
2017-09-17T20:35:27.194Z,15.80
2017-09-17T20:37:57.474Z,16.00
2017-09-17T20:40:25.850Z,15.80
2017-09-17T20:42:55.034Z,15.80
2017-09-17T20:45:23.365Z,15.90
2017-09-17T20:47:52.538Z,15.60
2017-09-17T20:50:21.345Z,15.70
2017-09-17T20:52:49.656Z,15.60
2017-09-17T20:55:18.789Z,15.40
2017-09-17T20:57:47.229Z,15.70
2017-09-17T21:00:16.478Z,15.80
2017-09-17T21:02:44.783Z,15.40
2017-09-17T21:05:13.924Z,15.60
2017-09-17T21:07:42.945Z,15.30
2017-09-17T21:10:11.275Z,15.60
2017-09-17T21:12:39.551Z,15.40
2017-09-17T21:15:08.639Z,15.40
2017-09-17T21:17:38.667Z,15.50
2017-09-17T21:20:07.835Z,15.60
2017-09-17T21:22:36.124Z,15.30
2017-09-17T21:25:05.177Z,15.20
2017-09-17T21:27:33.457Z,15.30
2017-09-17T21:30:01.814Z,15.40
2017-09-17T21:32:30.233Z,15.40
2017-09-17T21:34:58.614Z,15.30
2017-09-17T21:37:26.899Z,15.20
2017-09-17T21:39:55.928Z,14.90
2017-09-17T21:42:24.272Z,15.50
2017-09-17T21:44:52.550Z,15.40
2017-09-17T21:47:20.830Z,15.10
2017-09-17T21:49:49.129Z,15.10
2017-09-17T21:52:18.166Z,15.40
2017-09-17T21:54:46.574Z,15.40
2017-09-17T21:57:14.829Z,15.20
2017-09-17T21:59:43.072Z,15.00
2017-09-17T22:02:11.422Z,15.20
2017-09-17T22:04:39.733Z,15.20
2017-09-17T22:07:08.030Z,15.20
2017-09-17T22:09:36.344Z,14.80
2017-09-17T22:12:05.379Z,14.80
2017-09-17T22:14:33.699Z,14.70
2017-09-17T22:17:02.811Z,14.80
2017-09-17T22:19:31.123Z,14.90
2017-09-17T22:21:59.442Z,14.90
2017-09-17T22:24:27.706Z,14.70
2017-09-17T22:26:55.962Z,14.80
2017-09-17T22:29:24.329Z,14.70
2017-09-17T22:31:52.643Z,14.80
2017-09-17T22:34:20.962Z,14.90
2017-09-17T22:36:49.215Z,15.00
2017-09-17T22:39:17.505Z,14.90
2017-09-17T22:41:45.920Z,14.70
2017-09-17T22:44:14.185Z,14.80
2017-09-17T22:46:42.464Z,14.70
2017-09-17T22:49:10.820Z,14.80
2017-09-17T22:51:39.864Z,14.90
2017-09-17T22:54:08.222Z,14.80
2017-09-17T22:56:36.571Z,14.70
2017-09-17T22:59:06.590Z,14.60
2017-09-17T23:01:35.630Z,14.70
2017-09-17T23:04:03.936Z,14.50
2017-09-17T23:06:32.961Z,14.40
2017-09-17T23:09:02.019Z,14.60
2017-09-17T23:11:30.384Z,14.70
2017-09-17T23:13:58.654Z,14.70
2017-09-17T23:16:26.937Z,14.60
2017-09-17T23:18:55.242Z,14.30
2017-09-17T23:21:23.539Z,14.30
2017-09-17T23:23:51.772Z,14.10
2017-09-17T23:26:20.087Z,14.30
2017-09-17T23:28:49.138Z,14.40
2017-09-17T23:31:17.469Z,14.20
2017-09-17T23:33:45.745Z,14.30
2017-09-17T23:36:14.774Z,14.10
2017-09-17T23:38:44.054Z,14.20
2017-09-17T23:41:12.363Z,14.30
2017-09-17T23:43:40.648Z,14.30
2017-09-17T23:46:08.958Z,14.20
2017-09-17T23:48:38.002Z,14.10
2017-09-17T23:51:06.283Z,14.20
2017-09-17T23:53:41.000Z,14.30
2017-09-17T23:56:09.272Z,14.40
2017-09-17T23:58:38.229Z,14.10
